Blacksville, West Virginia
Current Conditions -  °F | °C
As of 8:53 AM on Thursday 29 Jan 2015 (Local Time) from KMGW Reporting Station
Clear Clear  
Wind Chill: 31°   Ceiling: Unl
Heat Index: 35°   Visibility: 10mi
Dew Point: 13°   Wind: 5mph
Humidity: 40%   Direction: 170°S
Pressure: 30.02"   Gusts: NA
Location:  39.72°N, 80.21°W
Report Text: KMGW 291353Z 17004KT 10SM CLR 02/M11 A3002 RMK AO2 SLP181 T00171106
Loading
Personal Weather Stations






























Interactive Weather Map New forecast layout! Learn more

10-Day Weather Forecast

Advertisements
Track Severe Weather on mobile